Terminal Aerodrome Forecast
Issued by NWS Paducah, KY

Home | Current Version | Previous Version | Text Only | Print | Product List | Glossary On
Versions: 1 2 3 4 5 6 7 8 9 10 11 12 13 14 15
000
FTUS43 KPAH 161700
TAFEVV
TAF
KEVV 161720Z 1618/1718 02008KT P6SM SCT015 BKN025
      TEMPO 1618/1622 BKN015
     FM162300 36003KT P6SM SCT025
     FM170200 00000KT P6SM SKC
      TEMPO 1709/1712 4SM BR
     FM171500 VRB03KT P6SM SCT030=

USA.gov is the U.S. government's official web portal to all federal, state and local government web resources and services.